A- A+ FrançaisEnglishEspañol中国

le plus proche LFGJ Dole-Tavaux LFGL Lons-Le-Saunier-Courlaoux LFRN Rennes-St-Jacques LFBT Tarbes-Lourdes-Pyrénées

manche à air

La météo aéronautique pour les pilotes, la préparation du vol avec les METAR (METeorological Aerodrome Report, message d'observation des conditions météorologiques pour l'aviation) et Les TAF (Terminal Aerodrome Forecast : message de prévision à court terme des conditions météorologiques pour l'aviation). Et les autres ressources comme les VAC (Visual Approch Chart) et les NOTAM (Notice To Airman) pour préprer les vols.

Aéroport Kittila (Finlande) / OACI EFKT/ IATA KTT

L'altitude de l'aéroport Kittila est de 196 m=643 ft. Il est situé à proximité de Kittilä (Finlande). La météo générale à 5 jours est disponible pour Kittila situé à 4.4 km.

METAR de l'aéroport Kittila - EFKT

EFKT 210250Z AUTO 06003KT 6000 -SN SCT020 OVC045 M05/M06 Q0999

Décodage du METAR de l'aéroport Kittila (FI)

METAR émis par EFKT le samedi 21 décembre 2019 à 02:50 heure TU. C'est un METAR généré automatiquement. Attention ce METAR est obsolète car il a été émis il y a 7 heure et 8 minutes.

La visibilité est de 6 km=3.7 sm.

La température est de -5°C=23 °F et le point rosée est de -6°C=21 °F . Ce qui correspond à 93% d'humidité relative.

Le QNH est de 999 hPa=29.5 inHg

Vent de 3 kt=6 km/h, orienté à 60°.

Nuages : Nuages épars à 2000 ft=610 mètres. Couverture nuageuse soudée à 4500 ft=1370 mètres.

-SN

TAF de l'aéroport Kittila - EFKT

EFKT 210226Z 2103/2112 04003KT 5000 -SN BKN004 TEMPO 2103/2112 1500 SN FEW004 BKN015

EFKT 210226Z 2103/2112 04003KT 5000 faible SN couverture nuageuse fragmentée à 004 temporairement 2103/2112 1500 neige quelques nuages à 004 couverture nuageuse fragmentée à 015

Aéroport à proximité de Kittila

Météo générale à 5 jours à Kittila (4.4 km)EFAA Aéroport Aavahelukka (39 km)EFPA Aéroport Pokka (65 km)EFSO Aéroport Sodankyla (83 km)ESUP Aéroport Pajala (91 km)EFET Aéroport Enontekio (94 km)EFRO Aéroport Rovaniemi (133 km)

VAC de l'aéroport Kittila - EFKT

La carte d'approche à vue (VAC Visual Approah Chart) est fournie sans aucune garantie de son actualité. Le pilote est le seul responsable de la vérification de sa validité avant de l'utiliser opérationnellement pour préparer un vol ou l'utiliser lors de sa navigation.

VAC de EFKT

Vue aérienne de l'aéroport Kittila

NOTAM de l'aéroport Kittila

Les NOTAM sont fournis sans aucune garantie de leur actualité. Le pilote est le seul responsable de la vérification de sa validité avant de l'utiliser opérationnellement pour préparer un vol ou l'utiliser lors de sa navigation.

Pas de NOTAM

Sources des données